Ruffs Dale, Pennsylvania
Current Conditions -  °F | °C
As of 9:50 AM on Monday 24 Nov 2014 (Local Time) from KLBE Reporting Station
Scattered Clouds Scattered Clouds  
Wind Chill: 66°   Ceiling: Unl
Heat Index: 66°   Visibility: 10mi
Dew Point: 48°   Wind: 17mph
Humidity: 52%   Direction: 180°S
Pressure: 29.49"   Gusts: 29mph
Location:  40.17°N, 79.61°W
Report Text: KLBE 241450Z 18015G25KT 10SM SCT060 19/09 A2949
Loading
Personal Weather Stations






























Interactive Weather Map New forecast layout! Learn more

10-Day Weather Forecast

Advertisements
Track Severe Weather on mobile